Terminal Aerodrome Forecast
Issued by NWS Newport/Morehead City, NC

Home | Current Version | Previous Version | Text Only | Print | Product List | Glossary On
Versions: 1 2 3 4 5 6 7 8 9 10 11 12 13 14 15 16 17 18 19 20 21
000
FTUS42 KMHX 192342
TAFEWN
TAF
KEWN 192342Z 2000/2024 13010KT P6SM -SHRA BKN008 OVC015
      TEMPO 2001/2003 2SM SHRA
     FM200300 16010KT 3SM SHRA BR OVC007
     FM200630 18018G30KT 1SM +TSRA BKN007 OVC015CB
     FM200830 20007KT P6SM VCSH OVC007
     FM201200 23006KT P6SM OVC015
     FM201500 22011G18KT P6SM SCT035
     FM202200 23009KT P6SM VCSH BKN040=

USA.gov is the U.S. government's official web portal to all federal, state and local government web resources and services.